Time;durP1;ratioP1;P1;durP2;ratioP2;P2;SDS_P1;SDS_P2;PMS_P1;PMS_P2;Temp;Humidity;BMP_temperature;BMP_pressure;BME280_temperature;BME280_humidity;BME280_pressure;Samples;Min_cycle;Max_cycle;Signal;HPM_P1;HPM_P2
2022/08/03 00:00:50;;;;;;;1.40;1.10;;;;;;;16.36;80.31;98180.39;1778205;80;20989;-68
2022/08/03 00:03:16;;;;;;;1.57;1.20;;;;;;;16.34;80.46;98194.78;1778370;80;20905;-68
2022/08/03 00:05:43;;;;;;;2.25;1.25;;;;;;;16.31;80.62;98191.37;1778149;79;21195;-69
2022/08/03 00:08:11;;;;;;;3.70;1.25;;;;;;;16.28;80.88;98190.65;1778244;80;20945;-68
2022/08/03 00:10:38;;;;;;;4.37;1.37;;;;;;;16.27;80.73;98195.80;1778350;80;20935;-69
2022/08/03 00:13:04;;;;;;;1.32;1.10;;;;;;;16.26;80.51;98188.83;1778213;80;20847;-68
2022/08/03 00:15:30;;;;;;;4.85;1.30;;;;;;;16.27;80.44;98189.05;1778353;80;20985;-68
2022/08/03 00:17:57;;;;;;;1.55;0.90;;;;;;;16.28;80.34;98192.00;1778339;80;21194;-68
2022/08/03 00:20:24;;;;;;;2.92;1.40;;;;;;;16.29;80.36;98196.30;1778130;80;20858;-68
2022/08/03 00:22:50;;;;;;;3.62;1.10;;;;;;;16.30;80.46;98194.37;1778226;80;20957;-68
2022/08/03 00:25:17;;;;;;;2.27;1.10;;;;;;;16.27;80.70;98190.40;1778311;80;20890;-68
2022/08/03 00:27:44;;;;;;;2.95;1.47;;;;;;;16.26;80.66;98191.53;1778244;80;20886;-68
2022/08/03 00:30:11;;;;;;;1.92;1.20;;;;;;;16.24;80.61;98187.56;1778211;80;21114;-68
2022/08/03 00:32:37;;;;;;;1.80;1.20;;;;;;;16.19;80.75;98187.18;1778157;80;20878;-69
2022/08/03 00:35:05;;;;;;;1.40;1.20;;;;;;;16.17;80.79;98185.36;1778291;80;20881;-68
2022/08/03 00:37:32;;;;;;;2.72;1.40;;;;;;;16.13;80.97;98178.98;1778200;80;20922;-68
2022/08/03 00:39:59;;;;;;;3.87;1.30;;;;;;;16.10;81.20;98183.70;1778203;80;21020;-68
2022/08/03 00:42:25;;;;;;;2.77;1.30;;;;;;;16.11;81.40;98183.92;1778308;80;21225;-68
2022/08/03 00:44:51;;;;;;;2.75;1.50;;;;;;;16.07;81.39;98176.78;1778137;80;20929;-68
2022/08/03 00:47:18;;;;;;;3.35;1.47;;;;;;;16.03;81.81;98179.34;1778418;80;20993;-68
2022/08/03 00:49:44;;;;;;;2.37;1.20;;;;;;;15.99;81.89;98187.84;1778290;80;20926;-68
2022/08/03 00:52:11;;;;;;;3.27;1.20;;;;;;;15.97;82.24;98185.25;1778224;80;20941;-68
2022/08/03 00:54:38;;;;;;;1.95;1.50;;;;;;;15.96;82.39;98197.95;1778309;80;21170;-68
2022/08/03 00:57:05;;;;;;;3.42;1.32;;;;;;;15.93;82.42;98186.98;1778143;80;20882;-68
2022/08/03 00:59:31;;;;;;;1.87;1.40;;;;;;;15.88;82.61;98191.98;1747935;80;20961;-68
2022/08/03 01:01:58;;;;;;;3.40;1.45;;;;;;;15.85;82.73;98188.57;1778280;80;20921;-68
2022/08/03 01:04:24;;;;;;;3.90;1.45;;;;;;;15.82;82.95;98187.87;1778318;80;20850;-68
2022/08/03 01:07:00;;;;;;;3.30;1.40;;;;;;;15.79;83.15;98192.55;1778100;79;21158;-68
2022/08/03 01:09:57;;;;;;;2.92;1.55;;;;;;;15.77;83.41;98192.09;1777955;80;20913;-68
2022/08/03 01:12:44;;;;;;;3.27;1.52;;;;;;;15.75;83.62;98195.66;1778317;80;20886;-66
2022/08/03 01:15:22;;;;;;;5.83;1.65;;;;;;;15.70;83.83;98188.52;1753581;80;21453;-68
2022/08/03 01:17:57;;;;;;;3.52;1.60;;;;;;;15.71;84.25;98189.29;1778323;80;21028;-67
2022/08/03 01:20:24;;;;;;;2.40;1.42;;;;;;;15.70;84.35;98197.17;1778315;80;21202;-67
2022/08/03 01:23:16;;;;;;;2.85;1.45;;;;;;;15.69;84.56;98189.63;1778125;80;20926;-67
2022/08/03 01:26:23;;;;;;;2.25;1.15;;;;;;;15.68;84.46;98188.60;1778373;80;20882;-67
2022/08/03 01:29:24;;;;;;;3.90;1.57;;;;;;;15.66;84.54;98190.83;1778255;80;20933;-66
2022/08/03 01:32:07;;;;;;;3.30;1.50;;;;;;;15.62;84.82;98193.36;1778420;80;21471;-66
2022/08/03 01:34:42;;;;;;;5.05;1.55;;;;;;;15.65;84.96;98194.63;1778305;80;21118;-67
2022/08/03 01:37:09;;;;;;;3.47;1.60;;;;;;;15.65;85.15;98195.98;1778254;80;25143;-67
2022/08/03 01:39:36;;;;;;;2.75;1.42;;;;;;;15.62;85.15;98195.25;1778253;80;20909;-67
2022/08/03 01:42:05;;;;;;;3.65;1.30;;;;;;;15.57;85.28;98194.05;1778249;80;21504;-67
2022/08/03 01:44:37;;;;;;;1.50;1.20;;;;;;;15.54;85.47;98197.41;1778255;80;20986;-67
2022/08/03 01:47:03;;;;;;;2.25;1.25;;;;;;;15.49;85.79;98199.72;1778549;80;21030;-68
2022/08/03 01:49:32;;;;;;;3.83;1.35;;;;;;;15.47;85.93;98201.14;1778180;80;20933;-68
2022/08/03 01:51:59;;;;;;;3.90;1.45;;;;;;;15.43;86.02;98202.83;1778160;80;21520;-67
2022/08/03 01:54:25;;;;;;;1.52;1.27;;;;;;;15.43;86.11;98206.88;1778140;80;20889;-68
2022/08/03 01:56:53;;;;;;;2.00;1.10;;;;;;;15.39;86.17;98197.83;1778160;80;20937;-68
2022/08/03 01:59:19;;;;;;;7.62;1.67;;;;;;;15.39;86.28;98211.33;1778146;80;21225;-68
2022/08/03 02:01:46;;;;;;;7.25;1.47;;;;;;;15.40;86.45;98203.48;1778055;80;20878;-68
2022/08/03 02:04:16;;;;;;;5.22;1.67;;;;;;;15.40;86.39;98197.51;1778340;80;21470;-68
2022/08/03 02:06:42;;;;;;;2.25;1.50;;;;;;;15.37;86.56;98194.11;1782470;79;20937;-68
2022/08/03 02:09:09;;;;;;;2.58;1.37;;;;;;;15.35;86.75;98201.73;1797193;79;21049;-68
2022/08/03 02:11:35;;;;;;;1.57;1.35;;;;;;;15.34;86.90;98198.78;1797357;79;21369;-67
2022/08/03 02:14:04;;;;;;;1.90;1.47;;;;;;;15.32;86.90;98190.22;1797175;79;21417;-67
2022/08/03 02:16:32;;;;;;;3.42;1.40;;;;;;;15.28;86.98;98192.52;1797025;79;20910;-67
2022/08/03 02:19:00;;;;;;;2.20;1.40;;;;;;;15.28;87.23;98192.52;1797114;79;20882;-67
2022/08/03 02:21:28;;;;;;;1.87;1.40;;;;;;;15.28;87.29;98188.47;1797099;79;20982;-67
2022/08/03 02:23:55;;;;;;;1.70;1.40;;;;;;;15.27;87.43;98193.06;1797041;79;21062;-67
2022/08/03 02:26:21;;;;;;;1.67;1.30;;;;;;;15.29;87.61;98183.29;1796969;79;20965;-67
2022/08/03 02:28:48;;;;;;;1.92;1.50;;;;;;;15.30;87.50;98188.39;1797090;79;20870;-67
2022/08/03 02:31:18;;;;;;;3.47;1.75;;;;;;;15.29;87.47;98191.38;1796987;79;20882;-67
2022/08/03 02:33:49;;;;;;;5.05;1.52;;;;;;;15.25;87.49;98195.83;1797079;79;21397;-67
2022/08/03 02:36:19;;;;;;;2.77;1.47;;;;;;;15.21;87.71;98195.68;1775022;79;21104;-67
2022/08/03 02:38:45;;;;;;;2.00;1.22;;;;;;;15.17;87.74;98193.93;1797276;79;21374;-67
2022/08/03 02:41:17;;;;;;;3.65;1.50;;;;;;;15.13;87.93;98197.80;1797056;79;20945;-67
2022/08/03 02:43:47;;;;;;;2.02;1.20;;;;;;;15.12;88.10;98194.08;1797285;79;20953;-67
2022/08/03 02:46:14;;;;;;;2.30;1.42;;;;;;;15.11;88.25;98198.67;1797170;79;21410;-67
2022/08/03 02:48:40;;;;;;;1.87;1.50;;;;;;;15.12;88.40;98203.52;1774884;79;21193;-67
2022/08/03 02:51:07;;;;;;;1.70;1.40;;;;;;;15.12;88.36;98203.52;1797023;79;20862;-67
2022/08/03 02:53:33;;;;;;;4.53;1.75;;;;;;;15.09;88.49;98206.28;1797012;79;20950;-67
2022/08/03 02:56:00;;;;;;;9.25;2.00;;;;;;;15.08;88.59;98210.87;1796965;79;20914;-67
2022/08/03 02:58:26;;;;;;;6.30;1.75;;;;;;;15.04;88.64;98209.92;1757190;80;20923;-67
2022/08/03 03:00:52;;;;;;;3.58;1.72;;;;;;;15.01;88.82;98201.66;1766709;81;21072;-67
2022/08/03 03:03:20;;;;;;;5.40;2.12;;;;;;;15.00;89.00;98211.64;1766561;81;21017;-67
2022/08/03 03:05:46;;;;;;;5.12;1.80;;;;;;;14.98;88.97;98204.97;1766739;81;20914;-67
2022/08/03 03:08:15;;;;;;;5.30;1.95;;;;;;;14.98;89.04;98206.31;1776920;80;20893;-67
2022/08/03 03:10:42;;;;;;;5.67;1.82;;;;;;;14.96;89.12;98201.25;1780992;80;21444;-67
2022/08/03 03:13:08;;;;;;;4.40;1.80;;;;;;;14.96;89.39;98200.44;1780561;80;21070;-67
2022/08/03 03:15:36;;;;;;;4.90;1.70;;;;;;;14.97;89.50;98206.89;1780590;80;21033;-67
2022/08/03 03:18:02;;;;;;;6.05;1.80;;;;;;;14.98;89.53;98204.42;1780583;80;20969;-67
2022/08/03 03:20:31;;;;;;;4.33;1.60;;;;;;;14.96;89.53;98205.29;1780615;80;20960;-67
2022/08/03 03:22:59;;;;;;;4.75;2.08;;;;;;;14.97;89.50;98206.89;1780598;80;20921;-67
2022/08/03 03:25:30;;;;;;;4.90;1.70;;;;;;;15.00;89.58;98209.52;1780659;80;21769;-67
2022/08/03 03:28:00;;;;;;;2.72;1.72;;;;;;;15.00;89.56;98218.38;1780590;80;20898;-67
2022/08/03 03:30:26;;;;;;;3.17;1.90;;;;;;;15.01;89.81;98215.14;1780253;80;20885;-67
2022/08/03 03:32:53;;;;;;;3.50;1.80;;;;;;;15.05;89.86;98215.55;1802692;79;20924;-67
2022/08/03 03:35:19;;;;;;;3.02;1.72;;;;;;;15.08;89.87;98213.58;1802725;79;20960;-67
2022/08/03 03:37:46;;;;;;;5.53;2.00;;;;;;;15.11;89.75;98216.75;1802686;79;22018;-68
2022/08/03 03:40:13;;;;;;;5.30;1.80;;;;;;;15.13;89.74;98213.98;1802503;79;20929;-68
2022/08/03 03:42:40;;;;;;;2.75;1.70;;;;;;;15.17;89.72;98215.52;1802590;79;20941;-67
2022/08/03 03:45:08;;;;;;;2.70;2.00;;;;;;;15.19;89.77;98217.34;1802696;79;20893;-67
2022/08/03 03:47:35;;;;;;;4.55;1.90;;;;;;;15.23;89.65;98220.44;1802706;79;20912;-67
2022/08/03 03:50:07;;;;;;;4.35;1.90;;;;;;;15.25;89.60;98218.22;1802754;79;21105;-67
2022/08/03 03:52:33;;;;;;;3.47;1.95;;;;;;;15.27;89.44;98224.64;1802559;79;20989;-67
2022/08/03 03:55:00;;;;;;;6.58;2.40;;;;;;;15.27;89.29;98224.64;1802676;79;20968;-67
2022/08/03 03:57:27;;;;;;;7.15;2.05;;;;;;;15.28;89.36;98230.29;1802670;79;21361;-67
2022/08/03 03:59:53;;;;;;;8.43;2.50;;;;;;;15.31;89.39;98225.05;1802637;79;20921;-67
2022/08/03 04:02:19;;;;;;;5.50;2.30;;;;;;;15.36;89.42;98228.14;1802653;79;21114;-67
2022/08/03 04:13:18;;;;;;;4.03;2.25;;;;;;;15.52;89.15;98236.08;1802917;79;20912;-67
2022/08/03 04:15:45;;;;;;;4.53;2.47;;;;;;;15.58;88.92;98241.00;1797245;79;21197;-67
2022/08/03 04:18:12;;;;;;;4.28;2.25;;;;;;;15.62;88.83;98242.50;1797281;79;20968;-67
2022/08/03 04:20:39;;;;;;;6.87;2.08;;;;;;;15.67;88.69;98255.85;1797195;79;21007;-67
2022/08/03 04:23:06;;;;;;;7.53;2.25;;;;;;;15.70;88.54;98253.33;1799477;79;20893;-67
2022/08/03 04:25:33;;;;;;;5.83;2.22;;;;;;;15.73;88.48;98256.72;1780667;80;20909;-67
2022/08/03 04:28:03;;;;;;;6.15;2.45;;;;;;;15.77;88.50;98255.55;1802687;79;21115;-67
2022/08/03 04:30:30;;;;;;;6.95;2.35;;;;;;;15.81;88.45;98257.84;1802470;79;21015;-67
2022/08/03 04:32:57;;;;;;;5.40;2.42;;;;;;;15.86;88.39;98252.30;1802575;79;20881;-67
2022/08/03 04:35:24;;;;;;;10.43;2.85;;;;;;;15.91;88.24;98247.28;1802674;79;21408;-66
2022/08/03 04:37:51;;;;;;;6.25;2.00;;;;;;;15.96;88.18;98252.53;1802579;79;21079;-66
2022/08/03 04:40:23;;;;;;;3.98;2.30;;;;;;;15.98;88.14;98255.70;1802530;79;21157;-65
2022/08/03 04:42:49;;;;;;;10.68;2.33;;;;;;;16.02;88.16;98260.15;1802657;79;21007;-66
2022/08/03 04:45:16;;;;;;;6.00;2.20;;;;;;;16.10;88.12;98255.31;1802720;79;20957;-67
2022/08/03 04:47:42;;;;;;;3.35;1.70;;;;;;;16.17;87.89;98257.52;1797075;79;21475;-67
2022/08/03 04:50:09;;;;;;;6.45;1.90;;;;;;;16.23;87.65;98258.93;1796713;79;21322;-67
2022/08/03 04:52:35;;;;;;;5.28;1.70;;;;;;;16.24;87.03;98264.03;1797587;79;21813;-67
2022/08/03 04:55:03;;;;;;;4.95;1.60;;;;;;;16.29;87.06;98264.42;1796549;79;20988;-66
2022/08/03 04:57:30;;;;;;;3.50;1.75;;;;;;;16.36;87.01;98268.23;1797334;79;20924;-66
2022/08/03 04:59:57;;;;;;;1.90;1.40;;;;;;;16.44;86.85;98263.91;1796431;79;21007;-67
2022/08/03 05:02:23;;;;;;;1.55;1.45;;;;;;;16.54;86.50;98266.86;1796046;79;21075;-67
2022/08/03 05:04:50;;;;;;;5.20;1.85;;;;;;;16.62;86.26;98270.11;1796143;79;21215;-66
2022/08/03 05:07:17;;;;;;;2.77;1.70;;;;;;;16.66;85.70;98273.75;1796484;79;20865;-67
2022/08/03 05:09:45;;;;;;;1.85;1.60;;;;;;;16.66;85.11;98271.84;1797392;79;20960;-67
2022/08/03 05:12:11;;;;;;;3.40;1.62;;;;;;;16.66;84.47;98267.79;1796682;79;20941;-67
2022/08/03 05:14:38;;;;;;;3.00;1.92;;;;;;;16.65;84.50;98269.48;1796805;79;20846;-67
2022/08/03 05:17:05;;;;;;;2.22;1.72;;;;;;;16.65;84.67;98269.48;1797394;79;21116;-67
2022/08/03 05:19:32;;;;;;;3.17;1.95;;;;;;;16.67;84.27;98269.39;1795468;79;21219;-66
2022/08/03 05:21:59;;;;;;;3.65;2.27;;;;;;;16.67;84.52;98268.03;1811673;79;21005;-67
2022/08/03 05:24:26;;;;;;;3.30;1.67;;;;;;;16.71;84.59;98270.87;1774415;78;20967;-66
2022/08/03 05:26:52;;;;;;;3.77;2.40;;;;;;;16.76;84.58;98267.45;1792237;80;21028;-67
2022/08/03 05:29:19;;;;;;;3.70;1.98;;;;;;;16.81;84.14;98265.92;1793251;80;22073;-67
2022/08/03 05:31:45;;;;;;;6.50;2.27;;;;;;;16.82;84.06;98273.45;1793154;80;20970;-67
2022/08/03 05:34:12;;;;;;;5.15;2.10;;;;;;;16.85;84.10;98277.67;1793426;80;21548;-67
2022/08/03 05:36:39;;;;;;;3.70;2.02;;;;;;;16.92;84.17;98273.11;1786379;80;21129;-67
2022/08/03 05:39:05;;;;;;;2.83;2.08;;;;;;;16.98;84.02;98269.13;1755734;79;20879;-67
2022/08/03 05:41:32;;;;;;;4.67;2.35;;;;;;;17.05;83.90;98273.47;1757897;79;21217;-66
2022/08/03 05:43:58;;;;;;;4.15;2.25;;;;;;;17.09;83.58;98267.63;1793688;80;21376;-67
2022/08/03 05:46:25;;;;;;;5.85;2.22;;;;;;;17.13;83.72;98278.59;1794674;79;20976;-66
2022/08/03 05:48:51;;;;;;;3.12;2.20;;;;;;;17.21;83.76;98278.56;1780880;79;21560;-67
2022/08/03 05:51:18;;;;;;;3.95;2.30;;;;;;;17.31;83.96;98282.23;1795195;77;21537;-66
2022/08/03 05:53:45;;;;;;;3.37;2.05;;;;;;;17.39;83.65;98286.82;1755989;81;22090;-66
2022/08/03 05:56:11;;;;;;;6.30;2.40;;;;;;;17.48;83.47;98288.11;1761339;79;20975;-67
2022/08/03 05:58:38;;;;;;;4.17;2.10;;;;;;;17.54;83.58;98286.85;1804845;79;20959;-67
2022/08/03 06:01:05;;;;;;;6.62;2.70;;;;;;;17.63;83.55;98291.09;1760703;79;20903;-66
2022/08/03 06:03:31;;;;;;;2.67;2.20;;;;;;;17.70;83.51;98288.66;1798507;79;21067;-67
2022/08/03 06:05:58;;;;;;;3.85;2.42;;;;;;;17.79;83.43;98289.95;1790932;79;21230;-67
2022/08/03 06:08:24;;;;;;;5.55;2.60;;;;;;;17.87;83.51;98289.66;1784422;79;21418;-66
2022/08/03 06:10:51;;;;;;;4.65;2.47;;;;;;;17.98;83.63;98293.55;1797887;79;21427;-67
2022/08/03 06:13:18;;;;;;;6.75;2.20;;;;;;;18.07;83.41;98295.06;1803521;79;38143;-67
2022/08/03 06:15:44;;;;;;;6.72;2.92;;;;;;;18.16;83.10;98305.86;1808369;79;21435;-64
2022/08/03 06:18:11;;;;;;;9.95;2.72;;;;;;;18.21;82.60;98306.98;1808126;79;21198;-67
2022/08/03 06:20:38;;;;;;;4.17;2.95;;;;;;;18.22;82.71;98302.61;1792041;79;20912;-68
2022/08/03 06:23:04;;;;;;;3.80;2.70;;;;;;;18.29;83.09;98304.78;1795399;79;20833;-60
2022/08/03 06:25:31;;;;;;;5.97;2.83;;;;;;;18.34;82.71;98308.64;1811710;78;21003;-69
2022/08/03 06:27:58;;;;;;;4.08;2.60;;;;;;;18.39;82.79;98309.80;1826932;78;20880;-68
2022/08/03 06:30:25;;;;;;;4.17;2.70;;;;;;;18.49;83.42;98302.61;1807739;78;21071;-68
2022/08/03 06:32:52;;;;;;;3.80;2.50;;;;;;;18.61;82.98;98301.86;1808000;79;21017;-68
2022/08/03 06:35:18;;;;;;;4.30;2.42;;;;;;;18.67;82.24;98308.12;1808097;79;20876;-68
2022/08/03 06:37:49;;;;;;;3.37;2.50;;;;;;;18.71;82.18;98306.31;1804970;79;20922;-67
2022/08/03 06:40:18;;;;;;;5.65;2.83;;;;;;;18.79;81.95;98306.80;1794195;79;20970;-68
2022/08/03 06:42:44;;;;;;;9.45;3.50;;;;;;;18.85;82.35;98304.08;1789223;79;21213;-67
2022/08/03 06:45:11;;;;;;;7.92;2.98;;;;;;;18.95;81.79;98311.80;1808061;79;20978;-67
2022/08/03 06:47:39;;;;;;;5.75;2.85;;;;;;;18.98;81.56;98313.82;1798258;78;20880;-67
2022/08/03 06:50:08;;;;;;;4.70;2.77;;;;;;;19.04;81.65;98308.97;1789039;79;20927;-68
2022/08/03 06:52:36;;;;;;;4.67;3.08;;;;;;;19.11;81.50;98303.22;1761033;79;21010;-68
2022/08/03 06:55:04;;;;;;;6.58;2.62;;;;;;;19.20;81.29;98306.38;1778432;79;21237;-68
2022/08/03 06:57:30;;;;;;;6.83;2.95;;;;;;;19.28;80.68;98309.00;1804021;79;21443;-68
2022/08/03 07:00:00;;;;;;;3.62;2.65;;;;;;;19.31;80.79;98310.25;1807286;79;21039;-66
2022/08/03 07:02:25;;;;;;;4.62;2.30;;;;;;;19.34;80.42;98301.41;1807353;79;21078;-66
2022/08/03 07:04:51;;;;;;;4.40;2.00;;;;;;;19.38;81.13;98300.45;1782664;79;21081;-67
2022/08/03 07:07:19;;;;;;;4.10;2.55;;;;;;;19.49;81.25;98304.84;1756883;81;21111;-68
2022/08/03 07:09:47;;;;;;;3.12;2.15;;;;;;;19.64;80.85;98303.57;1780169;79;20971;-68
2022/08/03 07:12:13;;;;;;;7.47;2.20;;;;;;;19.79;80.67;98297.45;1785658;78;21067;-68
2022/08/03 07:14:40;;;;;;;6.00;2.12;;;;;;;19.93;80.05;98302.51;1795952;79;21035;-67
2022/08/03 07:17:06;;;;;;;3.98;1.80;;;;;;;20.03;78.93;98306.12;1796198;79;21007;-68
2022/08/03 07:19:33;;;;;;;5.42;2.10;;;;;;;20.14;78.98;98301.77;1785395;79;21070;-66
2022/08/03 07:22:00;;;;;;;4.83;2.60;;;;;;;20.32;78.81;98307.20;1792353;79;21035;-67
2022/08/03 07:24:26;;;;;;;4.45;2.27;;;;;;;20.52;78.24;98301.87;1777459;79;21063;-67
2022/08/03 07:26:53;;;;;;;3.45;2.02;;;;;;;20.64;77.48;98303.18;1772830;81;21007;-68
2022/08/03 07:29:19;;;;;;;6.35;1.70;;;;;;;20.64;76.19;98300.46;1772391;81;21049;-68
2022/08/03 07:31:49;;;;;;;4.83;2.08;;;;;;;20.67;75.18;98303.86;1763212;79;21759;-67
2022/08/03 07:34:16;;;;;;;2.95;1.80;;;;;;;20.68;75.49;98302.73;1772384;79;20979;-68
2022/08/03 07:36:43;;;;;;;2.83;1.98;;;;;;;20.72;75.57;98302.25;1769525;79;20978;-67
2022/08/03 07:39:09;;;;;;;3.55;1.80;;;;;;;20.84;76.49;98307.06;1766809;81;21529;-67
2022/08/03 07:41:36;;;;;;;4.05;1.87;;;;;;;21.04;76.10;98305.22;1790345;79;20928;-67
2022/08/03 07:44:03;;;;;;;3.15;1.75;;;;;;;21.22;74.83;98305.11;1798832;79;21253;-65
2022/08/03 07:46:32;;;;;;;4.85;1.67;;;;;;;21.34;74.22;98309.11;1799236;79;21506;-66
2022/08/03 07:49:00;;;;;;;4.80;1.75;;;;;;;21.42;72.36;98317.68;1798008;79;21006;-68
2022/08/03 07:51:27;;;;;;;4.08;2.12;;;;;;;21.44;72.37;98320.05;1779095;78;21071;-67
2022/08/03 07:53:56;;;;;;;3.10;1.70;;;;;;;21.43;72.51;98310.30;1758623;79;21038;-66
2022/08/03 07:56:24;;;;;;;2.42;1.60;;;;;;;21.48;73.22;98314.13;1789993;80;21177;-65
2022/08/03 07:58:51;;;;;;;2.83;1.70;;;;;;;21.55;72.62;98315.66;1778339;78;21074;-66
2022/08/03 08:01:18;;;;;;;3.55;1.70;;;;;;;21.58;72.66;98310.27;1791747;78;20905;-66
2022/08/03 08:03:46;;;;;;;5.80;1.70;;;;;;;21.66;71.44;98305.22;1791245;79;20932;-68
2022/08/03 08:06:12;;;;;;;1.85;1.30;;;;;;;21.70;70.90;98303.35;1782979;80;21028;-66
2022/08/03 08:08:40;;;;;;;2.77;1.40;;;;;;;21.75;70.18;98300.35;1795147;79;21599;-65
2022/08/03 08:11:08;;;;;;;1.52;1.12;;;;;;;21.89;69.62;98311.38;1795799;79;20920;-67
2022/08/03 08:13:36;;;;;;;2.55;1.30;;;;;;;22.00;67.88;98303.64;1780898;80;21374;-68
2022/08/03 08:16:03;;;;;;;2.65;1.02;;;;;;;22.17;67.27;98311.98;1801198;79;20971;-65
2022/08/03 08:18:30;;;;;;;2.08;1.10;;;;;;;22.30;67.29;98307.98;1810145;78;21159;-68
2022/08/03 08:20:57;;;;;;;3.77;1.37;;;;;;;22.43;65.31;98303.38;1809976;79;22904;-66
2022/08/03 08:23:23;;;;;;;4.62;1.07;;;;;;;22.56;63.55;98315.52;1809948;79;20916;-65
2022/08/03 08:25:51;;;;;;;2.85;1.27;;;;;;;22.71;63.40;98318.17;1810064;78;20998;-67
2022/08/03 08:28:19;;;;;;;2.40;0.98;;;;;;;22.86;61.66;98307.73;1810718;78;21502;-67
2022/08/03 08:30:45;;;;;;;2.77;0.80;;;;;;;22.91;60.94;98303.92;1810237;78;20963;-67
2022/08/03 08:33:12;;;;;;;2.30;1.12;;;;;;;22.98;59.49;98309.50;1788399;79;21111;-68
2022/08/03 08:35:38;;;;;;;1.35;0.98;;;;;;;23.02;57.30;98308.41;1752080;79;20885;-67
2022/08/03 08:38:05;;;;;;;3.05;1.00;;;;;;;22.95;57.31;98309.66;1809979;79;20994;-68
2022/08/03 08:40:31;;;;;;;1.80;0.93;;;;;;;22.88;59.15;98312.26;1801803;79;20990;-66
2022/08/03 08:42:58;;;;;;;2.58;1.00;;;;;;;22.88;60.18;98310.89;1784627;79;21034;-68
2022/08/03 08:45:25;;;;;;;2.62;1.05;;;;;;;22.95;59.23;98311.02;1796770;79;21232;-68
2022/08/03 08:47:51;;;;;;;2.12;1.02;;;;;;;22.93;58.42;98307.87;1778199;80;20903;-67
2022/08/03 08:50:19;;;;;;;2.17;1.00;;;;;;;22.93;58.16;98313.33;1799975;79;21507;-68
2022/08/03 08:52:48;;;;;;;1.60;1.17;;;;;;;22.97;58.49;98311.44;1798492;79;21028;-68
2022/08/03 08:58:04;;;;;;;1.05;0.70;;;;;;;23.05;57.27;98309.06;1804033;79;21047;-67
2022/08/03 09:00:31;;;;;;;1.92;1.17;;;;;;;23.19;57.86;98315.34;1791331;79;20944;-68
2022/08/03 09:02:57;;;;;;;3.27;1.05;;;;;;;23.40;57.24;98308.09;1781921;80;21008;-67
2022/08/03 09:05:24;;;;;;;5.60;1.15;;;;;;;23.56;56.11;98310.09;1761302;79;21516;-66
2022/08/03 09:07:53;;;;;;;1.20;0.88;;;;;;;23.60;54.08;98312.33;1799160;79;21039;-67
2022/08/03 09:10:23;;;;;;;3.83;0.95;;;;;;;23.55;54.74;98316.73;1800041;77;21057;-69
2022/08/03 09:12:51;;;;;;;1.15;0.85;;;;;;;23.52;56.00;98314.73;1790924;79;21054;-71
2022/08/03 09:15:27;;;;;;;2.70;0.80;;;;;;;23.56;56.46;98313.62;1788164;79;21000;-69
2022/08/03 09:17:55;;;;;;;1.92;0.75;;;;;;;23.60;53.69;98310.96;1782508;79;21043;-65
2022/08/03 09:20:24;;;;;;;1.47;0.70;;;;;;;23.47;55.50;98318.56;1782409;79;21163;-65
2022/08/03 09:23:04;;;;;;;2.60;0.65;;;;;;;23.42;55.75;98317.50;1784369;78;21273;-67
2022/08/03 09:25:37;;;;;;;1.35;0.82;;;;;;;23.48;55.36;98319.36;1787570;79;21038;-66
2022/08/03 09:28:11;;;;;;;1.20;0.80;;;;;;;23.62;53.47;98319.58;1746263;79;21002;-66
2022/08/03 09:30:42;;;;;;;3.27;1.00;;;;;;;23.76;54.56;98312.35;1778116;79;21522;-65
2022/08/03 09:33:10;;;;;;;2.50;0.90;;;;;;;23.86;51.70;98308.19;1791863;78;21141;-67
2022/08/03 09:35:42;;;;;;;3.60;0.60;;;;;;;23.94;52.81;98315.35;1750395;81;21715;-67
2022/08/03 09:38:14;;;;;;;1.92;0.60;;;;;;;24.02;54.01;98314.30;1748987;80;21026;-67
2022/08/03 09:40:42;;;;;;;4.00;0.53;;;;;;;24.11;51.30;98309.37;1772037;79;20978;-65
2022/08/03 09:43:09;;;;;;;1.27;0.60;;;;;;;24.16;51.51;98303.58;1780568;80;21160;-67
2022/08/03 09:45:38;;;;;;;1.25;0.70;;;;;;;24.22;50.99;98305.39;1779930;79;21038;-67
2022/08/03 09:48:29;;;;;;;3.70;0.60;;;;;;;24.24;51.64;98310.70;1785797;79;21477;-67
2022/08/03 09:51:00;;;;;;;0.95;0.70;;;;;;;24.29;51.20;98310.38;1763147;79;20964;-67
2022/08/03 09:53:27;;;;;;;1.72;0.50;;;;;;;24.35;51.01;98306.14;1778361;79;21059;-65
2022/08/03 09:55:58;;;;;;;4.33;0.88;;;;;;;24.39;50.74;98291.93;1757059;81;21082;-66
2022/08/03 09:58:25;;;;;;;1.20;0.72;;;;;;;24.40;48.43;98313.26;1787478;79;21041;-67
2022/08/03 10:01:02;;;;;;;1.05;0.60;;;;;;;24.31;48.77;98304.52;1760491;80;21665;-69
2022/08/03 10:03:37;;;;;;;2.05;0.70;;;;;;;24.23;51.30;98309.14;1764335;79;21209;-66
2022/08/03 10:06:21;;;;;;;2.87;0.60;;;;;;;24.33;50.91;98307.70;1777387;79;21006;-66
2022/08/03 10:09:09;;;;;;;3.58;0.80;;;;;;;24.46;51.23;98301.59;1776273;78;21536;-66
2022/08/03 10:11:37;;;;;;;2.37;0.70;;;;;;;24.56;50.35;98304.25;1747159;81;21129;-67
2022/08/03 10:14:05;;;;;;;3.35;0.60;;;;;;;24.65;50.25;98303.37;1745065;81;21251;-67
2022/08/03 10:16:35;;;;;;;3.10;0.70;;;;;;;24.69;49.38;98303.39;1739738;81;20954;-66
2022/08/03 10:19:03;;;;;;;1.00;0.70;;;;;;;24.68;49.60;98312.22;1746827;81;21082;-65
2022/08/03 10:21:33;;;;;;;0.80;0.60;;;;;;;24.71;50.63;98306.54;1743073;81;21513;-65
2022/08/03 10:24:04;;;;;;;1.40;0.70;;;;;;;24.80;48.45;98315.30;1739578;81;21043;-66
2022/08/03 10:26:34;;;;;;;4.00;0.50;;;;;;;24.79;47.31;98317.82;1740362;81;21261;-66
2022/08/03 10:29:07;;;;;;;2.15;0.60;;;;;;;24.71;47.16;98305.17;1739668;81;21090;-65
2022/08/03 10:31:40;;;;;;;0.70;0.57;;;;;;;24.66;47.59;98304.16;1746907;81;21060;-67
2022/08/03 10:34:22;;;;;;;2.72;0.57;;;;;;;24.68;48.47;98308.68;1741829;81;20983;-68
2022/08/03 10:36:49;;;;;;;1.15;0.62;;;;;;;24.64;48.55;98310.57;1738072;81;21098;-66
2022/08/03 10:39:19;;;;;;;2.65;0.57;;;;;;;24.68;48.52;98312.22;1741863;81;21234;-66
2022/08/03 10:41:46;;;;;;;2.42;0.78;;;;;;;24.77;50.11;98310.56;1749834;81;21051;-66
2022/08/03 10:44:20;;;;;;;1.35;0.70;;;;;;;24.85;49.09;98304.77;1751399;81;20980;-67
2022/08/03 10:46:47;;;;;;;2.30;0.60;;;;;;;24.90;48.96;98305.02;1734989;81;21065;-67
2022/08/03 10:49:15;;;;;;;3.35;0.68;;;;;;;24.95;47.35;98304.67;1750256;81;21024;-67
2022/08/03 10:51:44;;;;;;;1.00;0.60;;;;;;;24.98;46.09;98297.08;1744410;81;21372;-67
2022/08/03 10:57:52;;;;;;;3.25;0.60;;;;;;;25.11;48.38;98302.47;1745085;81;20990;-67
2022/08/03 11:00:23;;;;;;;1.15;0.60;;;;;;;25.19;48.07;98297.27;1741768;81;21361;-68
2022/08/03 11:03:08;;;;;;;1.40;0.70;;;;;;;25.25;46.94;98299.09;1745326;81;21047;-67
2022/08/03 11:05:39;;;;;;;2.47;0.73;;;;;;;25.22;47.23;98289.67;1745675;81;21081;-66
2022/08/03 11:08:29;;;;;;;1.67;0.72;;;;;;;25.16;47.07;98287.05;1738493;81;21397;-67
2022/08/03 11:11:22;;;;;;;0.90;0.60;;;;;;;25.19;47.96;98289.62;1776580;79;21037;-66
2022/08/03 11:14:10;;;;;;;1.20;0.60;;;;;;;25.23;46.41;98291.80;1781314;79;21054;-68
2022/08/03 11:16:51;;;;;;;2.25;0.70;;;;;;;25.25;46.49;98299.09;1781421;79;21054;-68
2022/08/03 11:19:22;;;;;;;2.08;0.60;;;;;;;25.17;45.39;98285.11;1786972;79;21215;-66
2022/08/03 11:21:51;;;;;;;1.25;0.60;;;;;;;25.13;46.74;98287.83;1776171;79;21062;-67
2022/08/03 11:24:46;;;;;;;2.42;0.62;;;;;;;25.19;46.34;98286.30;1765959;80;21424;-68
2022/08/03 11:27:24;;;;;;;1.73;0.70;;;;;;;25.22;45.18;98282.02;1740702;81;21272;-68
2022/08/03 11:30:01;;;;;;;0.98;0.55;;;;;;;25.18;46.21;98280.61;1742139;81;21570;-69
2022/08/03 11:32:43;;;;;;;0.50;0.50;;;;;;;25.20;42.96;98280.25;1739578;81;21209;-67
2022/08/03 11:35:32;;;;;;;1.27;0.70;;;;;;;25.23;45.39;98280.27;1746185;81;21117;-67
2022/08/03 11:38:06;;;;;;;1.62;0.60;;;;;;;25.45;45.62;98284.78;1731643;81;21114;-67
2022/08/03 11:40:38;;;;;;;1.92;0.80;;;;;;;25.71;44.40;98281.04;1754975;80;21067;-67
2022/08/03 11:43:33;;;;;;;2.72;0.70;;;;;;;25.87;45.04;98265.64;1751618;80;21385;-67
2022/08/03 11:46:06;;;;;;;2.50;0.60;;;;;;;25.93;42.83;98269.61;1747701;80;21136;-67
2022/08/03 11:48:36;;;;;;;0.70;0.55;;;;;;;25.98;43.20;98261.02;1739449;81;21078;-68
2022/08/03 11:51:05;;;;;;;0.70;0.60;;;;;;;26.08;43.04;98268.48;1743213;81;20979;-67
2022/08/03 11:53:31;;;;;;;1.57;0.70;;;;;;;26.23;42.97;98268.80;1744997;81;21135;-69
2022/08/03 11:55:59;;;;;;;1.52;0.70;;;;;;;26.36;41.21;98270.00;1793329;79;21070;-68
2022/08/03 11:58:26;;;;;;;0.88;0.60;;;;;;;26.43;41.76;98275.52;1791952;79;21280;-65